createdAt,value
2022-10-29T00:02:46.787Z,8.43
2022-10-29T00:05:58.592Z,9.00
2022-10-29T00:09:01.597Z,8.70
2022-10-29T00:12:06.614Z,10.90
2022-10-29T00:15:11.325Z,8.38
2022-10-29T00:18:14.277Z,7.18
2022-10-29T00:21:20.987Z,7.80
2022-10-29T00:24:24.551Z,7.43
2022-10-29T00:27:28.881Z,7.25
2022-10-29T00:30:31.846Z,7.07
2022-10-29T00:33:35.419Z,7.00
2022-10-29T00:36:38.381Z,8.23
2022-10-29T00:39:41.629Z,7.82
2022-10-29T00:42:45.896Z,9.23
2022-10-29T00:45:54.180Z,9.20
2022-10-29T00:49:00.988Z,9.07
2022-10-29T00:52:06.041Z,8.68
2022-10-29T00:55:11.105Z,6.85
2022-10-29T00:58:15.479Z,8.10
2022-10-29T01:01:18.694Z,8.18
2022-10-29T01:04:21.983Z,8.55
2022-10-29T01:07:25.932Z,7.00
2022-10-29T01:10:38.903Z,7.57
2022-10-29T01:14:02.787Z,8.00
2022-10-29T01:17:17.768Z,8.20
2022-10-29T01:21:05.464Z,10.85
2022-10-29T01:24:53.573Z,13.33
2022-10-29T01:28:09.807Z,9.77
2022-10-29T01:31:25.462Z,8.53
2022-10-29T01:34:39.723Z,10.32
2022-10-29T01:37:58.318Z,9.67
2022-10-29T01:41:09.008Z,9.03
2022-10-29T01:44:24.718Z,7.97
2022-10-29T01:47:33.838Z,8.10
2022-10-29T01:50:39.930Z,8.37
2022-10-29T01:53:42.986Z,8.60
2022-10-29T01:56:54.619Z,11.00
2022-10-29T02:00:01.703Z,11.43
2022-10-29T02:03:28.397Z,10.07
2022-10-29T02:06:42.978Z,10.60
2022-10-29T02:09:56.009Z,8.37
2022-10-29T02:12:59.598Z,8.37
2022-10-29T02:16:06.712Z,9.10
2022-10-29T02:19:11.056Z,9.63
2022-10-29T02:22:16.424Z,8.63
2022-10-29T02:25:20.003Z,9.50
2022-10-29T02:28:23.021Z,9.67
2022-10-29T02:31:26.582Z,9.70
2022-10-29T02:34:30.870Z,9.93
2022-10-29T02:37:33.873Z,10.73
2022-10-29T02:40:36.856Z,13.10
2022-10-29T02:43:40.077Z,11.73
2022-10-29T02:46:43.018Z,11.20
2022-10-29T02:49:47.380Z,11.23
2022-10-29T02:52:50.351Z,10.07
2022-10-29T02:55:53.314Z,10.60
2022-10-29T02:58:56.351Z,9.80
2022-10-29T03:01:59.542Z,10.23
2022-10-29T03:05:06.581Z,9.50
2022-10-29T03:08:09.626Z,10.03
2022-10-29T03:11:13.147Z,9.90
2022-10-29T03:14:16.251Z,10.17
2022-10-29T03:17:19.215Z,10.20
2022-10-29T03:20:23.527Z,10.57
2022-10-29T03:23:26.602Z,9.80
2022-10-29T03:26:29.667Z,10.37
2022-10-29T03:29:32.699Z,10.40
2022-10-29T03:32:35.653Z,10.03
2022-10-29T03:35:40.185Z,9.63
2022-10-29T03:38:43.406Z,10.53
2022-10-29T03:41:46.464Z,10.43
2022-10-29T03:44:49.456Z,10.80
2022-10-29T03:47:53.297Z,11.90
2022-10-29T03:51:00.359Z,10.47
2022-10-29T03:54:03.547Z,10.40
2022-10-29T03:57:06.513Z,9.90
2022-10-29T04:00:11.935Z,9.73
2022-10-29T04:03:18.682Z,11.90
2022-10-29T04:06:23.249Z,9.53
2022-10-29T04:09:26.261Z,10.03
2022-10-29T04:12:29.263Z,12.30
2022-10-29T04:15:32.511Z,11.20
2022-10-29T04:18:35.846Z,10.33
2022-10-29T04:28:43.726Z,12.07
2022-10-29T04:31:47.219Z,12.50
2022-10-29T04:34:50.218Z,13.07
2022-10-29T04:37:55.471Z,12.23
2022-10-29T04:41:00.302Z,11.40
2022-10-29T04:44:05.402Z,9.73
2022-10-29T04:47:09.842Z,11.47
2022-10-29T04:50:15.966Z,9.53
2022-10-29T04:53:21.336Z,9.30
2022-10-29T04:56:25.098Z,10.87
2022-10-29T04:59:28.165Z,9.80
2022-10-29T05:02:31.184Z,10.30
2022-10-29T05:05:34.774Z,10.17
2022-10-29T05:08:39.112Z,11.37
2022-10-29T05:11:42.060Z,11.13
2022-10-29T05:14:45.297Z,10.27
2022-10-29T05:17:48.455Z,10.73
2022-10-29T05:20:55.124Z,10.57
2022-10-29T05:23:59.646Z,10.77
2022-10-29T05:27:03.383Z,10.83
2022-10-29T05:30:08.319Z,10.97
2022-10-29T05:33:13.061Z,10.40
2022-10-29T05:36:16.026Z,11.03
2022-10-29T05:39:20.385Z,10.50
2022-10-29T05:42:23.679Z,10.37
2022-10-29T05:45:26.935Z,11.57
2022-10-29T05:48:29.891Z,11.77
2022-10-29T05:51:33.090Z,10.93
2022-10-29T05:54:37.357Z,11.60
2022-10-29T05:57:40.334Z,11.33
2022-10-29T06:00:45.747Z,11.30
2022-10-29T06:03:48.867Z,10.03
2022-10-29T06:06:51.907Z,13.23
2022-10-29T06:09:56.285Z,14.13
2022-10-29T06:12:59.272Z,13.40
2022-10-29T06:16:02.375Z,13.37
2022-10-29T06:19:05.566Z,16.50
2022-10-29T06:22:08.863Z,13.93
2022-10-29T06:25:13.258Z,14.27
2022-10-29T06:28:16.396Z,13.43
2022-10-29T06:31:19.414Z,12.97
2022-10-29T06:34:22.366Z,13.57
2022-10-29T06:37:25.282Z,12.50
2022-10-29T06:40:29.628Z,12.37
2022-10-29T06:43:32.571Z,12.07
2022-10-29T06:46:35.780Z,12.17
2022-10-29T06:49:38.708Z,12.97
2022-10-29T06:52:41.646Z,13.57
2022-10-29T06:55:46.111Z,13.63
2022-10-29T06:58:49.118Z,12.57
2022-10-29T07:01:52.486Z,12.87
2022-10-29T07:04:55.482Z,14.03
2022-10-29T07:07:59.962Z,13.93
2022-10-29T07:11:04.590Z,15.03
2022-10-29T07:14:09.694Z,14.27
2022-10-29T07:17:12.694Z,13.50
2022-10-29T07:20:15.834Z,14.40
2022-10-29T07:23:18.867Z,13.13
2022-10-29T07:26:23.185Z,13.67
2022-10-29T07:29:26.109Z,14.10
2022-10-29T07:32:29.057Z,15.07
2022-10-29T07:35:32.293Z,15.47
2022-10-29T07:38:35.266Z,13.93
2022-10-29T07:41:39.552Z,14.07
2022-10-29T07:44:42.543Z,13.70
2022-10-29T07:47:45.817Z,14.57
2022-10-29T07:50:50.006Z,15.70
2022-10-29T07:53:52.969Z,16.90
2022-10-29T07:56:57.315Z,16.48
2022-10-29T08:00:00.821Z,15.53
2022-10-29T08:03:04.813Z,16.70
2022-10-29T08:06:08.209Z,14.95
2022-10-29T08:09:12.002Z,15.48
2022-10-29T08:12:16.294Z,14.73
2022-10-29T08:15:20.059Z,12.70
2022-10-29T08:18:23.057Z,12.45
2022-10-29T08:21:25.996Z,12.05
2022-10-29T08:24:28.961Z,12.05
2022-10-29T08:27:33.266Z,12.20
2022-10-29T08:30:36.582Z,11.70
2022-10-29T08:33:39.560Z,12.38
2022-10-29T08:36:42.710Z,13.93
2022-10-29T08:39:45.671Z,13.05
2022-10-29T08:43:08.966Z,12.93
2022-10-29T08:46:20.390Z,11.48
2022-10-29T08:49:29.183Z,11.57
2022-10-29T08:52:38.057Z,11.57
2022-10-29T08:55:41.049Z,11.65
2022-10-29T08:58:55.371Z,11.82
2022-10-29T09:01:58.456Z,14.45
2022-10-29T09:05:02.604Z,11.75
2022-10-29T09:08:25.808Z,11.88
2022-10-29T09:11:49.267Z,11.25
2022-10-29T09:15:18.841Z,12.77
2022-10-29T09:18:33.874Z,11.48
2022-10-29T09:21:46.674Z,12.52
2022-10-29T09:24:59.483Z,12.20
2022-10-29T09:28:21.632Z,11.82
2022-10-29T09:31:35.825Z,10.95
2022-10-29T09:34:44.905Z,11.27
2022-10-29T09:37:53.638Z,10.00
2022-10-29T09:40:59.216Z,11.00
2022-10-29T09:44:08.924Z,9.40
2022-10-29T09:47:27.316Z,12.57
2022-10-29T09:50:39.126Z,12.38
2022-10-29T09:53:42.108Z,10.65
2022-10-29T09:56:51.830Z,10.43
2022-10-29T10:00:02.354Z,10.90
2022-10-29T10:03:22.763Z,12.85
2022-10-29T10:06:25.787Z,12.18
2022-10-29T10:09:28.728Z,10.70
2022-10-29T10:12:47.768Z,10.75
2022-10-29T10:15:54.523Z,10.52
2022-10-29T10:18:58.999Z,9.27
2022-10-29T10:22:05.144Z,10.70
2022-10-29T10:25:34.664Z,9.52
2022-10-29T10:28:37.667Z,9.75
2022-10-29T10:31:41.325Z,10.65
2022-10-29T10:34:45.619Z,9.50
2022-10-29T10:37:48.603Z,8.90
2022-10-29T10:40:57.318Z,9.10
2022-10-29T10:44:02.509Z,8.68
2022-10-29T10:47:08.234Z,9.80
2022-10-29T10:50:19.753Z,9.95
2022-10-29T10:53:24.320Z,9.45
2022-10-29T10:56:27.315Z,9.10
2022-10-29T10:59:48.955Z,9.70
2022-10-29T11:02:59.101Z,11.77
2022-10-29T11:06:08.295Z,9.02
2022-10-29T11:09:23.189Z,10.45
2022-10-29T11:12:33.472Z,9.30
2022-10-29T11:15:40.418Z,8.52
2022-10-29T11:18:49.959Z,8.20
2022-10-29T11:22:04.531Z,8.73
2022-10-29T11:25:16.351Z,8.38
2022-10-29T11:28:25.881Z,7.57
2022-10-29T11:31:37.453Z,8.35
2022-10-29T11:34:52.746Z,7.85
2022-10-29T11:38:02.253Z,8.30
2022-10-29T11:41:08.863Z,9.00
2022-10-29T11:44:15.540Z,8.00
2022-10-29T11:47:37.307Z,8.32
2022-10-29T11:50:49.679Z,8.02
2022-10-29T11:54:10.359Z,7.25
2022-10-29T11:57:20.262Z,8.63
2022-10-29T12:00:24.695Z,7.95
2022-10-29T12:03:56.477Z,7.00
2022-10-29T12:07:13.370Z,8.15
2022-10-29T12:10:35.179Z,7.25
2022-10-29T12:13:54.725Z,7.35
2022-10-29T12:17:05.814Z,6.93
2022-10-29T12:20:22.080Z,8.05
2022-10-29T12:23:38.094Z,7.18
2022-10-29T12:26:48.307Z,9.20
2022-10-29T12:29:59.158Z,8.25
2022-10-29T12:33:11.507Z,7.75
2022-10-29T12:36:23.832Z,7.75
2022-10-29T12:39:30.825Z,9.00
2022-10-29T12:42:35.548Z,8.00
2022-10-29T12:46:14.388Z,7.22
2022-10-29T12:49:18.853Z,8.15
2022-10-29T12:52:32.097Z,7.97
2022-10-29T12:55:36.975Z,7.68
2022-10-29T12:58:50.300Z,8.02
2022-10-29T13:05:35.478Z,7.78
2022-10-29T13:08:39.775Z,9.23
2022-10-29T13:11:49.033Z,7.75
2022-10-29T13:14:57.026Z,8.38
2022-10-29T13:18:07.016Z,7.10
2022-10-29T13:21:10.376Z,10.90
2022-10-29T13:24:17.818Z,7.82
2022-10-29T13:27:36.888Z,7.80
2022-10-29T13:30:42.883Z,8.40
2022-10-29T13:33:52.423Z,8.65
2022-10-29T13:37:34.279Z,8.30
2022-10-29T13:41:13.115Z,8.13
2022-10-29T13:44:21.764Z,7.72
2022-10-29T13:47:26.890Z,8.23
2022-10-29T13:50:30.116Z,7.82
2022-10-29T13:53:40.375Z,8.38
2022-10-29T13:56:50.511Z,8.55
2022-10-29T13:59:59.372Z,7.35
2022-10-29T14:03:13.981Z,8.15
2022-10-29T14:06:23.717Z,8.95
2022-10-29T14:09:37.849Z,8.25
2022-10-29T14:12:42.840Z,9.50
2022-10-29T14:16:02.134Z,9.40
2022-10-29T14:19:20.332Z,8.55
2022-10-29T14:22:36.430Z,8.27
2022-10-29T14:25:39.516Z,8.80
2022-10-29T14:28:44.622Z,8.85
2022-10-29T14:31:47.994Z,8.98
2022-10-29T14:34:52.853Z,8.60
2022-10-29T14:37:56.911Z,9.55
2022-10-29T14:41:00.315Z,8.95
2022-10-29T14:44:09.550Z,9.63
2022-10-29T14:47:27.591Z,8.77
2022-10-29T14:50:33.417Z,8.07
2022-10-29T14:53:39.545Z,9.02
2022-10-29T14:56:43.007Z,8.88
2022-10-29T14:59:50.223Z,10.15
2022-10-29T15:02:56.168Z,10.52
2022-10-29T15:06:17.146Z,11.00
2022-10-29T15:09:28.038Z,9.55
2022-10-29T15:12:37.441Z,8.95
2022-10-29T15:15:41.063Z,9.73
2022-10-29T15:18:49.706Z,10.70
2022-10-29T15:21:54.483Z,8.85
2022-10-29T15:24:57.828Z,9.70
2022-10-29T15:28:02.503Z,15.65
2022-10-29T15:31:06.306Z,11.07
2022-10-29T15:34:11.623Z,12.93
2022-10-29T15:37:25.466Z,13.70
2022-10-29T15:40:28.490Z,15.07
2022-10-29T15:43:31.547Z,18.30
2022-10-29T15:46:49.767Z,12.52
2022-10-29T15:49:53.051Z,10.60
2022-10-29T15:53:01.754Z,10.40
2022-10-29T15:56:05.537Z,12.32
2022-10-29T15:59:13.352Z,13.20
2022-10-29T16:02:18.229Z,13.13
2022-10-29T16:05:21.686Z,12.98
2022-10-29T16:08:30.043Z,12.32
2022-10-29T16:11:36.059Z,11.93
2022-10-29T16:14:39.070Z,9.38
2022-10-29T16:17:42.253Z,11.30
2022-10-29T16:20:45.763Z,9.85
2022-10-29T16:23:50.685Z,10.13
2022-10-29T16:26:53.665Z,11.35
2022-10-29T16:29:56.608Z,11.43
2022-10-29T16:33:01.374Z,11.15
2022-10-29T16:36:04.690Z,9.90
2022-10-29T16:39:09.263Z,11.10
2022-10-29T16:42:29.936Z,10.60
2022-10-29T16:45:33.325Z,10.95
2022-10-29T16:48:36.416Z,11.43
2022-10-29T16:51:39.352Z,12.10
2022-10-29T16:54:43.672Z,10.95
2022-10-29T16:57:46.638Z,11.80
2022-10-29T17:00:49.981Z,11.88
2022-10-29T17:03:53.460Z,12.23
2022-10-29T17:06:56.443Z,12.18
2022-10-29T17:10:00.949Z,11.60
2022-10-29T17:13:04.328Z,14.90
2022-10-29T17:16:08.722Z,13.82
2022-10-29T17:19:11.776Z,13.70
2022-10-29T17:22:16.093Z,13.45
2022-10-29T17:25:20.554Z,12.27
2022-10-29T17:28:24.912Z,12.23
2022-10-29T17:31:28.058Z,12.70
2022-10-29T17:34:30.996Z,12.57
2022-10-29T17:37:34.077Z,12.35
2022-10-29T17:40:38.614Z,13.20
2022-10-29T17:43:41.664Z,14.15
2022-10-29T17:46:44.616Z,14.23
2022-10-29T17:49:49.123Z,13.30
2022-10-29T17:52:53.218Z,15.20
2022-10-29T17:56:00.434Z,17.52
2022-10-29T17:59:03.516Z,15.30
2022-10-29T18:02:06.617Z,16.67
2022-10-29T18:05:10.423Z,15.10
2022-10-29T18:08:13.429Z,17.15
2022-10-29T18:11:20.188Z,17.02
2022-10-29T18:14:23.439Z,17.80
2022-10-29T18:17:26.468Z,20.45
2022-10-29T18:20:29.498Z,19.98
2022-10-29T18:23:32.551Z,19.40
2022-10-29T18:26:37.984Z,18.48
2022-10-29T18:29:41.038Z,19.17
2022-10-29T18:32:44.019Z,19.27
2022-10-29T18:35:47.036Z,20.80
2022-10-29T18:38:51.804Z,20.52
2022-10-29T18:41:56.947Z,17.77
2022-10-29T18:44:59.925Z,16.40
2022-10-29T18:48:02.936Z,18.50
2022-10-29T18:51:08.653Z,19.70
2022-10-29T18:54:14.493Z,18.55
2022-10-29T18:57:19.503Z,18.27
2022-10-29T19:00:23.000Z,20.67
2022-10-29T19:06:36.541Z,22.25
2022-10-29T19:09:39.482Z,19.85
2022-10-29T19:12:43.809Z,21.85
2022-10-29T19:15:46.789Z,22.05
2022-10-29T19:18:55.031Z,22.42
2022-10-29T19:21:58.082Z,21.75
2022-10-29T19:25:01.038Z,22.52
2022-10-29T19:28:05.946Z,20.75
2022-10-29T19:31:12.703Z,22.52
2022-10-29T19:34:16.073Z,21.45
2022-10-29T19:37:19.006Z,22.92
2022-10-29T19:40:22.122Z,21.80
2022-10-29T19:43:28.541Z,21.70
2022-10-29T19:46:31.871Z,21.95
2022-10-29T19:49:35.075Z,23.58
2022-10-29T19:52:38.085Z,21.75
2022-10-29T19:55:41.361Z,22.92
2022-10-29T19:58:45.661Z,23.42
2022-10-29T20:01:48.923Z,23.63
2022-10-29T20:04:52.095Z,23.50
2022-10-29T20:07:56.556Z,26.58
2022-10-29T20:11:01.150Z,28.10
2022-10-29T20:14:05.522Z,27.35
2022-10-29T20:17:08.518Z,28.15
2022-10-29T20:20:16.824Z,26.33
2022-10-29T20:23:20.394Z,27.92
2022-10-29T20:26:23.513Z,26.33
2022-10-29T20:29:27.758Z,26.90
2022-10-29T20:32:30.803Z,26.92
2022-10-29T20:35:33.747Z,26.65
2022-10-29T20:38:37.598Z,31.00
2022-10-29T20:41:40.747Z,31.15
2022-10-29T20:44:45.890Z,29.75
2022-10-29T20:47:48.920Z,29.35
2022-10-29T20:50:52.756Z,28.40
2022-10-29T20:53:56.202Z,27.92
2022-10-29T20:56:59.329Z,28.50
2022-10-29T21:00:03.921Z,30.97
2022-10-29T21:03:07.384Z,28.88
2022-10-29T21:06:16.910Z,32.22
2022-10-29T21:09:20.607Z,27.38
2022-10-29T21:12:23.538Z,27.02
2022-10-29T21:15:27.856Z,30.52
2022-10-29T21:18:30.842Z,29.48
2022-10-29T21:21:34.055Z,28.48
2022-10-29T21:24:38.328Z,32.90
2022-10-29T21:27:43.492Z,27.90
2022-10-29T21:30:48.558Z,28.65
2022-10-29T21:33:51.933Z,29.00
2022-10-29T21:36:54.911Z,26.77
2022-10-29T21:40:03.267Z,29.15
2022-10-29T21:43:09.154Z,29.13
2022-10-29T21:46:13.613Z,28.83
2022-10-29T21:49:16.585Z,32.78
2022-10-29T21:52:19.564Z,31.88
2022-10-29T21:55:22.588Z,31.02
2022-10-29T21:58:25.691Z,32.80
2022-10-29T22:01:30.194Z,31.33
2022-10-29T22:04:33.335Z,31.70
2022-10-29T22:07:36.809Z,30.95
2022-10-29T22:10:39.763Z,31.15
2022-10-29T22:13:42.816Z,30.70
2022-10-29T22:16:47.959Z,29.92
2022-10-29T22:19:51.387Z,30.60
2022-10-29T22:22:54.542Z,30.07
2022-10-29T22:25:57.662Z,29.35
2022-10-29T22:29:00.731Z,30.00
2022-10-29T22:32:07.815Z,30.30
2022-10-29T22:35:10.798Z,30.43
2022-10-29T22:38:13.899Z,31.85
2022-10-29T22:41:18.554Z,30.40
2022-10-29T22:44:21.592Z,31.87
2022-10-29T22:47:25.980Z,31.65
2022-10-29T22:50:29.277Z,30.07
2022-10-29T22:53:32.775Z,30.13
2022-10-29T22:56:37.852Z,31.63
2022-10-29T22:59:40.997Z,30.00
2022-10-29T23:02:45.361Z,30.63
2022-10-29T23:05:57.907Z,31.15
2022-10-29T23:09:01.721Z,30.77
2022-10-29T23:12:05.945Z,32.53
2022-10-29T23:15:09.420Z,31.93
2022-10-29T23:18:13.857Z,29.45
2022-10-29T23:21:17.057Z,31.55
2022-10-29T23:24:19.989Z,30.23
2022-10-29T23:27:22.947Z,31.33
2022-10-29T23:30:26.210Z,32.53
2022-10-29T23:33:32.548Z,29.70
2022-10-29T23:36:35.862Z,32.83
2022-10-29T23:39:38.862Z,29.65
2022-10-29T23:42:41.893Z,29.93
2022-10-29T23:45:45.121Z,29.17
2022-10-29T23:48:49.465Z,28.07
2022-10-29T23:51:52.650Z,32.83
2022-10-29T23:54:55.751Z,32.97
2022-10-29T23:57:58.847Z,29.05
